createdAt,value
2023-02-11T00:00:41.913Z,78.72
2023-02-11T00:03:08.903Z,69.28
2023-02-11T00:05:35.406Z,77.40
2023-02-11T00:08:01.802Z,79.75
2023-02-11T00:10:28.254Z,76.50
2023-02-11T00:12:54.694Z,80.22
2023-02-11T00:15:21.450Z,75.18
2023-02-11T00:17:47.876Z,84.68
2023-02-11T00:20:14.663Z,77.60
2023-02-11T00:22:41.118Z,75.65
2023-02-11T00:25:07.708Z,82.65
2023-02-11T00:27:34.527Z,81.22
2023-02-11T00:30:02.170Z,86.78
2023-02-11T00:32:30.432Z,80.35
2023-02-11T00:34:56.891Z,80.47
2023-02-11T00:37:23.327Z,77.05
2023-02-11T00:39:50.143Z,79.28
2023-02-11T00:42:16.799Z,87.80
2023-02-11T00:44:44.842Z,78.72
2023-02-11T00:47:11.311Z,80.07
2023-02-11T00:49:40.193Z,80.15
2023-02-11T00:52:06.899Z,80.38
2023-02-11T00:54:34.351Z,75.65
2023-02-11T00:57:00.805Z,81.55
2023-02-11T00:59:27.370Z,85.88
2023-02-11T01:01:53.977Z,78.50
2023-02-11T01:04:20.480Z,80.47
2023-02-11T01:06:47.108Z,78.70
2023-02-11T01:09:13.535Z,78.38
2023-02-11T01:11:40.084Z,84.30
2023-02-11T01:14:06.491Z,82.88
2023-02-11T01:16:32.986Z,77.25
2023-02-11T01:18:59.579Z,78.93
2023-02-11T01:21:26.177Z,75.13
2023-02-11T01:23:52.984Z,74.50
2023-02-11T01:26:19.700Z,76.95
2023-02-11T01:28:46.491Z,79.00
2023-02-11T01:31:13.054Z,83.15
2023-02-11T01:33:40.301Z,82.05
2023-02-11T01:36:08.015Z,75.07
2023-02-11T01:38:34.966Z,76.90
2023-02-11T01:41:05.140Z,80.97
2023-02-11T01:43:41.409Z,81.25
2023-02-11T01:46:31.220Z,82.35
2023-02-11T01:49:06.770Z,73.53
2023-02-11T01:51:40.100Z,72.15
2023-02-11T01:54:27.663Z,78.40
2023-02-11T01:57:15.194Z,79.97
2023-02-11T01:59:57.731Z,78.22
2023-02-11T02:02:30.649Z,78.13
2023-02-11T02:05:14.751Z,77.03
2023-02-11T02:07:58.908Z,78.90
2023-02-11T02:10:28.404Z,78.10
2023-02-11T02:12:55.173Z,79.65
2023-02-11T02:15:38.413Z,76.40
2023-02-11T02:18:13.900Z,78.40
2023-02-11T02:21:11.217Z,75.90
2023-02-11T02:23:54.180Z,73.65
2023-02-11T02:26:37.618Z,75.85
2023-02-11T02:29:31.070Z,63.03
2023-02-11T02:32:31.339Z,74.25
2023-02-11T02:35:06.915Z,71.40
2023-02-11T02:37:54.976Z,76.57
2023-02-11T02:40:28.902Z,73.55
2023-02-11T02:42:56.721Z,72.85
2023-02-11T02:45:23.156Z,76.32
2023-02-11T02:47:49.568Z,75.90
2023-02-11T02:50:20.780Z,73.45
2023-02-11T02:53:04.573Z,78.32
2023-02-11T02:56:00.718Z,82.75
2023-02-11T02:58:30.051Z,73.20
2023-02-11T03:01:34.229Z,82.45
2023-02-11T03:04:25.142Z,76.97
2023-02-11T03:06:57.682Z,78.22
2023-02-11T03:09:34.852Z,80.50
2023-02-11T03:12:03.595Z,71.18
2023-02-11T03:14:32.088Z,74.25
2023-02-11T03:17:01.678Z,76.90
2023-02-11T03:19:37.590Z,69.47
2023-02-11T03:22:08.045Z,75.20
2023-02-11T03:24:38.522Z,76.30
2023-02-11T03:27:20.265Z,75.53
2023-02-11T03:30:01.196Z,74.75
2023-02-11T03:32:36.916Z,78.15
2023-02-11T03:35:14.165Z,81.65
2023-02-11T03:37:49.352Z,72.07
2023-02-11T03:40:21.325Z,74.50
2023-02-11T03:42:54.589Z,74.78
2023-02-11T03:45:23.887Z,71.67
2023-02-11T03:48:29.778Z,80.57
2023-02-11T03:50:59.465Z,73.05
2023-02-11T03:53:25.881Z,74.82
2023-02-11T03:55:54.754Z,75.57
2023-02-11T03:58:21.245Z,65.43
2023-02-11T04:00:48.242Z,74.22
2023-02-11T04:03:14.732Z,69.30
2023-02-11T04:05:41.215Z,71.47
2023-02-11T04:08:07.979Z,69.28
2023-02-11T04:10:34.446Z,73.35
2023-02-11T04:13:01.165Z,63.75
2023-02-11T04:15:27.683Z,68.90
2023-02-11T04:17:54.122Z,71.25
2023-02-11T04:20:20.718Z,65.60
2023-02-11T04:22:47.171Z,67.35
2023-02-11T04:25:13.869Z,74.97
2023-02-11T04:27:40.346Z,71.68
2023-02-11T04:30:07.949Z,69.88
2023-02-11T04:32:34.365Z,65.72
2023-02-11T04:35:00.869Z,63.92
2023-02-11T04:37:27.368Z,57.55
2023-02-11T04:39:53.808Z,68.78
2023-02-11T04:42:20.244Z,64.03
2023-02-11T04:44:46.865Z,61.53
2023-02-11T04:47:15.347Z,64.40
2023-02-11T04:49:42.279Z,66.82
2023-02-11T04:52:09.138Z,58.30
2023-02-11T04:54:35.651Z,65.15
2023-02-11T04:57:02.220Z,61.38
2023-02-11T04:59:29.103Z,65.95
2023-02-11T05:01:55.837Z,59.03
2023-02-11T05:04:22.402Z,64.32
2023-02-11T05:06:48.853Z,63.38
2023-02-11T05:09:15.656Z,61.83
2023-02-11T05:11:42.745Z,68.75
2023-02-11T05:14:09.176Z,56.92
2023-02-11T05:16:35.706Z,63.25
2023-02-11T05:19:02.225Z,60.85
2023-02-11T05:21:28.674Z,60.35
2023-02-11T05:23:55.128Z,55.05
2023-02-11T05:26:21.540Z,58.53
2023-02-11T05:28:48.186Z,58.90
2023-02-11T05:31:15.053Z,62.63
2023-02-11T05:33:41.980Z,58.78
2023-02-11T05:36:11.249Z,57.40
2023-02-11T05:38:38.445Z,54.00
2023-02-11T05:41:06.213Z,59.08
2023-02-11T05:43:32.802Z,51.10
2023-02-11T05:45:59.285Z,55.30
2023-02-11T05:48:25.777Z,56.67
2023-02-11T05:50:52.420Z,52.38
2023-02-11T05:53:18.798Z,59.70
2023-02-11T05:55:46.072Z,57.63
2023-02-11T05:58:12.480Z,52.28
2023-02-11T06:00:39.260Z,57.50
2023-02-11T06:03:05.840Z,56.35
2023-02-11T06:05:33.111Z,51.95
2023-02-11T06:07:59.837Z,52.40
2023-02-11T06:10:26.671Z,57.10
2023-02-11T06:12:53.083Z,58.00
2023-02-11T06:15:19.631Z,51.92
2023-02-11T06:17:46.340Z,46.40
2023-02-11T06:20:12.792Z,55.75
2023-02-11T06:22:39.266Z,51.50
2023-02-11T06:25:06.330Z,54.65
2023-02-11T06:27:32.820Z,46.75
2023-02-11T06:29:59.238Z,47.55
2023-02-11T06:32:45.253Z,45.45
2023-02-11T06:35:13.863Z,45.88
2023-02-11T06:37:41.128Z,44.42
2023-02-11T06:40:08.489Z,54.28
2023-02-11T06:42:36.313Z,46.95
2023-02-11T06:45:05.895Z,50.55
2023-02-11T06:47:32.340Z,49.58
2023-02-11T06:49:58.724Z,47.55
2023-02-11T06:52:25.136Z,52.92
2023-02-11T06:54:51.581Z,43.40
2023-02-11T06:57:18.019Z,45.72
2023-02-11T06:59:44.530Z,52.53
2023-02-11T07:02:11.035Z,46.42
2023-02-11T07:04:37.967Z,51.28
2023-02-11T07:07:04.372Z,44.55
2023-02-11T07:09:30.814Z,47.55
2023-02-11T07:11:57.289Z,47.35
2023-02-11T07:14:23.860Z,46.83
2023-02-11T07:16:50.289Z,44.08
2023-02-11T07:19:17.119Z,48.58
2023-02-11T07:21:43.600Z,58.55
2023-02-11T07:24:11.245Z,50.30
2023-02-11T07:26:38.407Z,49.35
2023-02-11T07:29:05.031Z,42.70
2023-02-11T07:31:31.875Z,43.28
2023-02-11T07:34:00.918Z,44.20
2023-02-11T07:36:28.849Z,47.78
2023-02-11T07:38:55.280Z,44.55
2023-02-11T07:41:23.359Z,53.65
2023-02-11T07:43:50.887Z,43.90
2023-02-11T07:46:25.996Z,44.13
2023-02-11T07:48:53.142Z,40.15
2023-02-11T07:51:29.987Z,42.42
2023-02-11T07:54:02.134Z,51.05
2023-02-11T07:56:29.552Z,47.15
2023-02-11T07:58:59.548Z,42.28
2023-02-11T08:01:28.696Z,45.95
2023-02-11T08:03:56.386Z,45.50
2023-02-11T08:06:24.927Z,41.08
2023-02-11T08:08:51.339Z,39.47
2023-02-11T08:11:26.123Z,43.60
2023-02-11T08:13:53.551Z,39.05
2023-02-11T08:16:26.353Z,42.67
2023-02-11T08:18:55.233Z,40.40
2023-02-11T08:21:21.698Z,39.10
2023-02-11T08:23:49.303Z,42.17
2023-02-11T08:26:21.811Z,50.30
2023-02-11T08:28:50.233Z,38.70
2023-02-11T08:31:19.438Z,38.72
2023-02-11T08:33:46.116Z,40.13
2023-02-11T08:36:18.715Z,34.60
2023-02-11T08:38:45.454Z,40.38
2023-02-11T08:41:14.735Z,36.80
2023-02-11T08:43:44.890Z,37.53
2023-02-11T08:46:15.595Z,37.75
2023-02-11T08:48:42.744Z,30.85
2023-02-11T08:51:11.534Z,35.78
2023-02-11T08:53:37.929Z,29.85
2023-02-11T08:56:04.638Z,37.80
2023-02-11T08:58:31.074Z,29.80
2023-02-11T09:00:57.571Z,31.92
2023-02-11T09:03:23.995Z,34.53
2023-02-11T09:05:53.119Z,29.48
2023-02-11T09:08:21.161Z,28.15
2023-02-11T09:10:48.397Z,30.05
2023-02-11T09:13:16.380Z,28.27
2023-02-11T09:15:46.839Z,31.85
2023-02-11T09:18:13.535Z,30.00
2023-02-11T09:20:40.084Z,30.13
2023-02-11T09:23:06.497Z,27.08
2023-02-11T09:25:32.896Z,30.55
2023-02-11T09:27:59.421Z,25.73
2023-02-11T09:30:25.856Z,28.92
2023-02-11T09:32:52.378Z,29.13
2023-02-11T09:35:18.875Z,23.73
2023-02-11T09:37:45.310Z,23.23
2023-02-11T09:40:13.424Z,23.95
2023-02-11T09:42:48.814Z,25.13
2023-02-11T09:45:27.804Z,27.33
2023-02-11T09:47:57.127Z,26.13
2023-02-11T09:50:32.716Z,28.20
2023-02-11T09:53:04.546Z,24.80
2023-02-11T09:55:37.950Z,24.92
2023-02-11T09:58:11.736Z,26.48
2023-02-11T10:00:46.752Z,24.60
2023-02-11T10:03:46.006Z,31.60
2023-02-11T10:06:32.367Z,28.77
2023-02-11T10:09:24.424Z,22.48
2023-02-11T10:12:09.075Z,28.45
2023-02-11T10:14:46.102Z,22.55
2023-02-11T10:17:44.333Z,25.13
2023-02-11T10:20:19.750Z,23.90
2023-02-11T10:22:54.067Z,23.00
2023-02-11T10:25:25.007Z,22.77
2023-02-11T10:27:54.819Z,21.13
2023-02-11T10:30:25.855Z,20.55
2023-02-11T10:32:59.545Z,21.33
2023-02-11T10:35:27.213Z,22.42
2023-02-11T10:37:55.752Z,20.95
2023-02-11T10:40:25.015Z,21.00
2023-02-11T10:42:55.791Z,22.48
2023-02-11T10:45:30.402Z,21.35
2023-02-11T10:47:57.204Z,19.70
2023-02-11T10:50:30.912Z,17.13
2023-02-11T10:53:15.614Z,19.20
2023-02-11T10:55:53.590Z,17.77
2023-02-11T10:58:28.193Z,15.48
2023-02-11T11:00:59.962Z,18.73
2023-02-11T11:03:32.312Z,18.83
2023-02-11T11:06:01.743Z,19.83
2023-02-11T11:08:44.996Z,18.83
2023-02-11T11:11:20.197Z,17.05
2023-02-11T11:13:52.715Z,16.58
2023-02-11T11:16:28.347Z,19.33
2023-02-11T11:19:06.650Z,18.83
2023-02-11T11:21:41.915Z,17.27
2023-02-11T11:24:18.406Z,15.85
2023-02-11T11:26:48.544Z,16.25
2023-02-11T11:29:19.530Z,21.23
2023-02-11T11:31:49.993Z,18.23
2023-02-11T11:34:38.114Z,16.23
2023-02-11T11:37:13.680Z,18.70
2023-02-11T11:39:40.558Z,16.73
2023-02-11T11:42:25.848Z,17.48
2023-02-11T11:44:58.966Z,21.92
2023-02-11T11:47:31.244Z,19.70
2023-02-11T11:50:34.846Z,17.92
2023-02-11T11:53:11.300Z,18.23
2023-02-11T11:55:48.197Z,20.33
2023-02-11T11:58:21.832Z,17.55
2023-02-11T12:01:25.975Z,21.42
2023-02-11T12:04:20.359Z,20.50
2023-02-11T12:06:56.601Z,19.58
2023-02-11T12:09:37.648Z,20.25
2023-02-11T12:12:19.495Z,20.98
2023-02-11T12:15:16.995Z,25.10
2023-02-11T12:18:00.184Z,24.67
2023-02-11T12:20:38.267Z,19.95
2023-02-11T12:23:46.000Z,21.30
2023-02-11T12:26:24.256Z,22.98
2023-02-11T12:29:12.093Z,23.17
2023-02-11T12:32:09.625Z,24.95
2023-02-11T12:34:47.659Z,23.13
2023-02-11T12:37:37.133Z,20.15
2023-02-11T12:40:25.570Z,22.23
2023-02-11T12:43:17.044Z,19.10
2023-02-11T12:46:21.664Z,22.60
2023-02-11T12:49:16.622Z,25.20
2023-02-11T12:52:04.609Z,21.38
2023-02-11T12:54:43.603Z,22.55
2023-02-11T12:57:23.040Z,20.20
2023-02-11T12:59:58.910Z,22.70
2023-02-11T13:02:28.354Z,25.20
2023-02-11T13:04:59.847Z,18.65
2023-02-11T13:07:33.160Z,21.33
2023-02-11T13:10:20.925Z,21.38
2023-02-11T13:13:08.752Z,24.58
2023-02-11T13:15:35.563Z,22.08
2023-02-11T13:18:24.559Z,20.67
2023-02-11T13:21:03.438Z,23.85
2023-02-11T13:24:00.858Z,23.17
2023-02-11T13:27:13.678Z,22.70
2023-02-11T13:30:11.254Z,16.27
2023-02-11T13:32:56.004Z,19.00
2023-02-11T13:35:36.180Z,18.25
2023-02-11T13:38:05.474Z,19.00
2023-02-11T13:40:37.912Z,16.92
2023-02-11T13:43:08.708Z,18.80
2023-02-11T13:45:42.347Z,16.38
2023-02-11T13:48:21.893Z,16.83
2023-02-11T13:50:57.528Z,13.30
2023-02-11T13:53:24.372Z,15.13
2023-02-11T13:56:04.349Z,14.05
2023-02-11T13:58:36.352Z,15.50
2023-02-11T14:01:02.889Z,17.20
2023-02-11T14:03:51.232Z,12.43
2023-02-11T14:06:39.741Z,12.52
2023-02-11T14:09:09.076Z,12.35
2023-02-11T14:11:41.830Z,13.90
2023-02-11T14:14:08.195Z,14.80
2023-02-11T14:16:38.516Z,12.45
2023-02-11T14:19:06.664Z,13.00
2023-02-11T14:21:37.397Z,14.80
2023-02-11T14:24:06.989Z,14.02
2023-02-11T14:27:21.323Z,11.20
2023-02-11T14:29:59.654Z,12.25
2023-02-11T14:32:53.744Z,12.13
2023-02-11T14:35:35.348Z,14.73
2023-02-11T14:38:21.178Z,13.23
2023-02-11T14:41:07.470Z,10.13
2023-02-11T14:43:46.831Z,14.50
2023-02-11T14:46:17.746Z,14.68
2023-02-11T14:48:48.516Z,15.40
2023-02-11T14:51:31.331Z,10.88
2023-02-11T14:54:03.865Z,12.43
2023-02-11T14:56:31.452Z,12.65
2023-02-11T14:58:58.670Z,17.23
2023-02-11T15:01:29.058Z,13.70
2023-02-11T15:03:56.577Z,10.00
2023-02-11T15:06:39.594Z,16.13
2023-02-11T15:09:14.699Z,14.90
2023-02-11T15:11:44.103Z,14.77
2023-02-11T15:14:18.898Z,14.65
2023-02-11T15:16:47.007Z,13.63
2023-02-11T15:19:23.416Z,11.65
2023-02-11T15:21:50.936Z,12.55
2023-02-11T15:24:27.790Z,12.63
2023-02-11T15:27:18.444Z,13.82
2023-02-11T15:29:49.608Z,14.43
2023-02-11T15:32:23.001Z,12.93
2023-02-11T15:34:51.742Z,13.60
2023-02-11T15:37:24.377Z,12.43
2023-02-11T15:39:52.068Z,14.38
2023-02-11T15:42:40.803Z,16.35
2023-02-11T15:45:13.630Z,12.07
2023-02-11T15:47:46.680Z,13.50
2023-02-11T15:50:31.045Z,11.45
2023-02-11T15:55:28.542Z,13.20
2023-02-11T15:57:58.352Z,16.83
2023-02-11T16:00:33.565Z,15.63
2023-02-11T16:03:00.337Z,16.15
2023-02-11T16:05:37.843Z,15.45
2023-02-11T16:08:25.578Z,15.88
2023-02-11T16:10:58.682Z,13.23
2023-02-11T16:13:28.089Z,15.17
2023-02-11T16:16:02.312Z,14.02
2023-02-11T16:18:38.835Z,16.42
2023-02-11T16:21:15.817Z,15.27
2023-02-11T16:23:43.562Z,11.70
2023-02-11T16:26:20.946Z,12.68
2023-02-11T16:28:51.061Z,10.65
2023-02-11T16:31:18.509Z,16.15
2023-02-11T16:33:45.298Z,11.85
2023-02-11T16:36:13.775Z,13.88
2023-02-11T16:38:40.591Z,12.00
2023-02-11T16:41:07.154Z,16.17
2023-02-11T16:43:33.733Z,12.30
2023-02-11T16:46:00.191Z,14.15
2023-02-11T16:48:26.749Z,14.43
2023-02-11T16:50:53.735Z,15.93
2023-02-11T16:53:24.009Z,12.80
2023-02-11T16:55:51.855Z,14.30
2023-02-11T16:58:19.258Z,10.93
2023-02-11T17:00:47.160Z,19.05
2023-02-11T17:03:22.303Z,19.13
2023-02-11T17:05:55.384Z,14.88
2023-02-11T17:08:23.471Z,14.50
2023-02-11T17:10:50.394Z,16.80
2023-02-11T17:13:17.032Z,17.48
2023-02-11T17:15:43.547Z,15.77
2023-02-11T17:18:14.144Z,14.98
2023-02-11T17:20:41.614Z,15.98
2023-02-11T17:23:08.293Z,14.40
2023-02-11T17:25:37.174Z,15.00
2023-02-11T17:28:08.331Z,13.38
2023-02-11T17:30:35.113Z,17.60
2023-02-11T17:33:01.597Z,18.98
2023-02-11T17:35:28.001Z,15.88
2023-02-11T17:37:54.444Z,15.82
2023-02-11T17:40:21.083Z,19.17
2023-02-11T17:42:47.516Z,16.38
2023-02-11T17:45:14.129Z,21.13
2023-02-11T17:47:40.591Z,21.58
2023-02-11T17:50:08.016Z,17.73
2023-02-11T17:52:34.675Z,21.63
2023-02-11T17:55:01.088Z,18.08
2023-02-11T17:57:27.588Z,28.83
2023-02-11T17:59:54.016Z,18.45
2023-02-11T18:02:20.844Z,23.08
2023-02-11T18:04:47.315Z,24.48
2023-02-11T18:07:13.967Z,28.75
2023-02-11T18:09:41.499Z,21.88
2023-02-11T18:12:08.507Z,20.95
2023-02-11T18:14:35.170Z,26.35
2023-02-11T18:17:01.623Z,24.35
2023-02-11T18:19:30.505Z,24.58
2023-02-11T18:22:00.554Z,19.92
2023-02-11T18:24:27.445Z,24.70
2023-02-11T18:26:53.856Z,24.60
2023-02-11T18:29:20.343Z,22.92
2023-02-11T18:31:46.836Z,23.33
2023-02-11T18:34:14.048Z,23.33
2023-02-11T18:36:40.618Z,20.30
2023-02-11T18:39:07.129Z,20.52
2023-02-11T18:41:33.584Z,23.15
2023-02-11T18:44:04.453Z,17.40
2023-02-11T18:46:31.250Z,23.92
2023-02-11T18:48:57.738Z,17.48
2023-02-11T18:51:24.444Z,25.27
2023-02-11T18:53:51.230Z,18.73
2023-02-11T18:56:21.016Z,18.92
2023-02-11T18:58:51.971Z,26.00
2023-02-11T19:01:22.697Z,21.33
2023-02-11T19:03:49.749Z,22.55
2023-02-11T19:06:19.893Z,19.70
2023-02-11T19:08:47.136Z,18.08
2023-02-11T19:11:16.099Z,19.75
2023-02-11T19:13:42.533Z,21.85
2023-02-11T19:16:11.366Z,18.55
2023-02-11T19:18:38.713Z,23.50
2023-02-11T19:21:10.449Z,22.10
2023-02-11T19:23:37.543Z,19.08
2023-02-11T19:26:04.547Z,20.00
2023-02-11T19:28:35.313Z,21.13
2023-02-11T19:31:08.268Z,19.88
2023-02-11T19:33:34.854Z,18.77
2023-02-11T19:36:06.612Z,18.02
2023-02-11T19:38:33.977Z,16.60
2023-02-11T19:41:00.397Z,18.60
2023-02-11T19:43:26.994Z,12.73
2023-02-11T19:45:57.479Z,18.85
2023-02-11T19:48:25.060Z,17.75
2023-02-11T19:50:51.730Z,20.73
2023-02-11T19:53:18.210Z,16.17
2023-02-11T19:55:44.654Z,16.92
2023-02-11T19:58:11.121Z,18.92
2023-02-11T20:00:37.548Z,19.17
2023-02-11T20:03:03.984Z,22.33
2023-02-11T20:05:31.319Z,18.40
2023-02-11T20:07:57.733Z,16.83
2023-02-11T20:10:25.194Z,14.73
2023-02-11T20:12:51.597Z,14.00
2023-02-11T20:15:18.389Z,15.98
2023-02-11T20:17:44.806Z,16.42
2023-02-11T20:20:12.769Z,14.57
2023-02-11T20:22:39.184Z,19.58
2023-02-11T20:25:06.162Z,22.92
2023-02-11T20:27:33.303Z,19.52
2023-02-11T20:29:59.751Z,20.20
2023-02-11T20:32:27.405Z,21.20
2023-02-11T20:34:53.840Z,17.38
2023-02-11T20:37:20.248Z,26.48
2023-02-11T20:39:46.655Z,20.27
2023-02-11T20:42:14.267Z,20.75
2023-02-11T20:44:40.984Z,20.13
2023-02-11T20:47:07.402Z,27.08
2023-02-11T20:49:33.820Z,20.58
2023-02-11T20:52:00.308Z,23.73
2023-02-11T20:54:26.726Z,20.80
2023-02-11T20:56:53.938Z,20.30
2023-02-11T20:59:21.102Z,28.10
2023-02-11T21:01:53.353Z,29.05
2023-02-11T21:04:22.910Z,22.70
2023-02-11T21:06:52.320Z,22.65
2023-02-11T21:09:21.742Z,22.80
2023-02-11T21:11:51.443Z,25.45
2023-02-11T21:14:19.004Z,22.38
2023-02-11T21:16:46.379Z,24.88
2023-02-11T21:19:12.951Z,19.67
2023-02-11T21:21:40.528Z,29.77
2023-02-11T21:24:07.891Z,24.65
2023-02-11T21:26:35.499Z,22.83
2023-02-11T21:29:07.341Z,24.10
2023-02-11T21:31:35.320Z,21.05
2023-02-11T21:34:01.891Z,25.67
2023-02-11T21:36:29.528Z,26.95
2023-02-11T21:38:55.988Z,20.85
2023-02-11T21:41:22.645Z,24.88
2023-02-11T21:43:50.207Z,26.90
2023-02-11T21:46:17.911Z,23.25
2023-02-11T21:48:44.558Z,28.48
2023-02-11T21:51:16.666Z,26.55
2023-02-11T21:53:43.457Z,32.58
2023-02-11T21:56:16.258Z,30.02
2023-02-11T21:58:44.073Z,23.90
2023-02-11T22:01:13.314Z,25.95
2023-02-11T22:03:40.295Z,32.08
2023-02-11T22:06:09.269Z,27.27
2023-02-11T22:08:36.016Z,28.40
2023-02-11T22:11:04.560Z,28.52
2023-02-11T22:13:31.161Z,28.48
2023-02-11T22:15:59.562Z,24.20
2023-02-11T22:18:26.400Z,29.15
2023-02-11T22:21:04.669Z,27.83
2023-02-11T22:23:31.652Z,30.35
2023-02-11T22:25:58.565Z,28.00
2023-02-11T22:28:26.109Z,24.30
2023-02-11T22:30:54.628Z,25.95
2023-02-11T22:33:22.029Z,26.90
2023-02-11T22:35:48.489Z,29.17
2023-02-11T22:38:14.929Z,25.95
2023-02-11T22:40:43.090Z,24.65
2023-02-11T22:43:10.463Z,27.17
2023-02-11T22:45:36.922Z,29.63
2023-02-11T22:48:03.565Z,23.90
2023-02-11T22:50:30.317Z,31.77
2023-02-11T22:52:56.700Z,35.58
2023-02-11T22:55:23.103Z,29.42
2023-02-11T22:57:49.542Z,31.02
2023-02-11T23:00:17.146Z,27.75
2023-02-11T23:02:43.672Z,36.28
2023-02-11T23:05:10.165Z,30.48
2023-02-11T23:07:36.612Z,29.75
2023-02-11T23:10:03.657Z,29.05
2023-02-11T23:12:30.336Z,30.00
2023-02-11T23:14:56.762Z,34.47
2023-02-11T23:17:24.512Z,33.95
2023-02-11T23:19:51.097Z,33.63
2023-02-11T23:22:17.659Z,24.95
2023-02-11T23:24:44.240Z,27.15
2023-02-11T23:27:10.637Z,33.63
2023-02-11T23:29:37.059Z,27.02
2023-02-11T23:32:03.604Z,29.92
2023-02-11T23:34:30.018Z,25.42
2023-02-11T23:36:59.158Z,32.58
2023-02-11T23:39:25.732Z,27.85
2023-02-11T23:41:58.843Z,34.78
2023-02-11T23:44:26.704Z,27.17
2023-02-11T23:46:53.217Z,26.45
2023-02-11T23:49:20.009Z,29.92
2023-02-11T23:51:46.487Z,25.48
2023-02-11T23:54:14.832Z,25.92
2023-02-11T23:56:42.532Z,24.75
2023-02-11T23:59:09.350Z,22.30
